SWA6132 KSTL-KICT
Flight info
| Callsign | SWA6132 |
|---|---|
| Flight time | 0h 57m |
| Altitude | 34000 |
| Route | BGOOD5 VIH |
| Aircraft | B737/M-SDE2E3GIJ4RWZ/LB1D1 |
Departure
| Time | 2026-04-22 10:42 |
|---|---|
| Airport | St. Louis Lambert International Airport (KSTL) |
Arrival
| Time | 2026-04-22 11:39 |
|---|---|
| Airport | Wichita Dwight D. Eisenhower National Airport (KICT) |
| Time | Latitude | Longitude | Altitude | Speed | Heading |
|---|---|---|---|---|---|
| 2026-04-22 10:34 | 38.73752 | -90.35471 | 576 ft | 0 kts | 212° |
| 2026-04-22 10:38 | 38.73753 | -90.35471 | 576 ft | 0 kts | 216° |
| 2026-04-22 10:38 | 38.73754 | -90.35470 | 576 ft | 0 kts | 221° |
| 2026-04-22 10:38 | 38.73755 | -90.35469 | 576 ft | 0 kts | 227° |
| 2026-04-22 10:39 | 38.73760 | -90.35462 | 577 ft | 2 kts | 200° |
| 2026-04-22 10:39 | 38.73783 | -90.35465 | 576 ft | 4 kts | 128° |
| 2026-04-22 10:40 | 38.73775 | -90.35394 | 578 ft | 18 kts | 97° |
| 2026-04-22 10:40 | 38.73777 | -90.35275 | 582 ft | 11 kts | 77° |
| 2026-04-22 10:40 | 38.73792 | -90.35176 | 585 ft | 11 kts | 84° |
| 2026-04-22 10:40 | 38.73801 | -90.35080 | 589 ft | 11 kts | 62° |
| 2026-04-22 10:41 | 38.73857 | -90.35019 | 590 ft | 11 kts | 34° |
| 2026-04-22 10:41 | 38.73981 | -90.35061 | 587 ft | 26 kts | 308° |
| 2026-04-22 10:41 | 38.74226 | -90.35541 | 577 ft | 111 kts | 302° |
| 2026-04-22 10:41 | 38.74796 | -90.36671 | 737 ft | 180 kts | 302° |
| 2026-04-22 10:42 | 38.75553 | -90.38131 | 1466 ft | 213 kts | 299° |
| 2026-04-22 10:42 | 38.76198 | -90.39906 | 1994 ft | 220 kts | 281° |
| 2026-04-22 10:42 | 38.76173 | -90.41822 | 2335 ft | 221 kts | 252° |
| 2026-04-22 10:42 | 38.75338 | -90.43486 | 2767 ft | 235 kts | 227° |
| 2026-04-22 10:43 | 38.73853 | -90.44543 | 3294 ft | 259 kts | 200° |
| 2026-04-22 10:43 | 38.72101 | -90.45133 | 3964 ft | 259 kts | 202° |
| 2026-04-22 10:43 | 38.70569 | -90.46238 | 4412 ft | 254 kts | 231° |
| 2026-04-22 10:43 | 38.69730 | -90.48156 | 4859 ft | 243 kts | 250° |
| 2026-04-22 10:44 | 38.69059 | -90.50187 | 5544 ft | 254 kts | 248° |
| 2026-04-22 10:44 | 38.68317 | -90.52259 | 6173 ft | 258 kts | 246° |
| 2026-04-22 10:44 | 38.67529 | -90.54353 | 6740 ft | 265 kts | 245° |
| 2026-04-22 10:44 | 38.66706 | -90.56489 | 7081 ft | 267 kts | 245° |
| 2026-04-22 10:45 | 38.65865 | -90.58580 | 7493 ft | 265 kts | 244° |
| 2026-04-22 10:45 | 38.65003 | -90.60697 | 8031 ft | 271 kts | 244° |
| 2026-04-22 10:45 | 38.64114 | -90.62833 | 8509 ft | 272 kts | 243° |
| 2026-04-22 10:45 | 38.63196 | -90.64987 | 9057 ft | 280 kts | 243° |
| 2026-04-22 10:46 | 38.62269 | -90.67185 | 9439 ft | 280 kts | 243° |
| 2026-04-22 10:46 | 38.61331 | -90.69376 | 9918 ft | 284 kts | 243° |
| 2026-04-22 10:46 | 38.60358 | -90.71584 | 10270 ft | 285 kts | 242° |
| 2026-04-22 10:46 | 38.59376 | -90.73811 | 10677 ft | 299 kts | 243° |
| 2026-04-22 10:47 | 38.58328 | -90.76189 | 11119 ft | 315 kts | 243° |
| 2026-04-22 10:47 | 38.57233 | -90.78670 | 11460 ft | 325 kts | 242° |
| 2026-04-22 10:47 | 38.56102 | -90.81221 | 11917 ft | 336 kts | 242° |
| 2026-04-22 10:47 | 38.54920 | -90.83883 | 12312 ft | 351 kts | 243° |
| 2026-04-22 10:48 | 38.53700 | -90.86633 | 12662 ft | 358 kts | 242° |
| 2026-04-22 10:48 | 38.52460 | -90.89410 | 13099 ft | 363 kts | 242° |
| 2026-04-22 10:48 | 38.51198 | -90.92230 | 13506 ft | 367 kts | 243° |
| 2026-04-22 10:48 | 38.49936 | -90.95070 | 13968 ft | 369 kts | 243° |
| 2026-04-22 10:49 | 38.48656 | -90.97935 | 14460 ft | 373 kts | 243° |
| 2026-04-22 10:49 | 38.47349 | -91.00816 | 14936 ft | 375 kts | 242° |
| 2026-04-22 10:49 | 38.46010 | -91.03685 | 15405 ft | 377 kts | 242° |
| 2026-04-22 10:49 | 38.44663 | -91.06575 | 15902 ft | 380 kts | 242° |
| 2026-04-22 10:50 | 38.43362 | -91.09474 | 16399 ft | 383 kts | 243° |
| 2026-04-22 10:50 | 38.42029 | -91.12422 | 16925 ft | 385 kts | 243° |
| 2026-04-22 10:50 | 38.40686 | -91.15399 | 17428 ft | 387 kts | 243° |
| 2026-04-22 10:50 | 38.39341 | -91.18381 | 17962 ft | 390 kts | 243° |
| 2026-04-22 10:51 | 38.37979 | -91.21387 | 18502 ft | 393 kts | 242° |
| 2026-04-22 10:51 | 38.36613 | -91.24418 | 18949 ft | 396 kts | 243° |
| 2026-04-22 10:51 | 38.35232 | -91.27471 | 19423 ft | 399 kts | 243° |
| 2026-04-22 10:51 | 38.33841 | -91.30541 | 19900 ft | 402 kts | 243° |
| 2026-04-22 10:52 | 38.32442 | -91.33639 | 20395 ft | 406 kts | 243° |
| 2026-04-22 10:52 | 38.31029 | -91.36771 | 20871 ft | 409 kts | 243° |
| 2026-04-22 10:52 | 38.29582 | -91.39906 | 21373 ft | 413 kts | 242° |
| 2026-04-22 10:52 | 38.28104 | -91.43059 | 21880 ft | 416 kts | 242° |
| 2026-04-22 10:53 | 38.26616 | -91.46239 | 22394 ft | 419 kts | 242° |
| 2026-04-22 10:53 | 38.25128 | -91.49444 | 22918 ft | 423 kts | 243° |
| 2026-04-22 10:53 | 38.23654 | -91.52707 | 23461 ft | 427 kts | 243° |
| 2026-04-22 10:53 | 38.22173 | -91.56004 | 23956 ft | 431 kts | 243° |
| 2026-04-22 10:54 | 38.20681 | -91.59328 | 24408 ft | 434 kts | 243° |
| 2026-04-22 10:54 | 38.19149 | -91.62652 | 24872 ft | 438 kts | 242° |
| 2026-04-22 10:54 | 38.17584 | -91.65984 | 25344 ft | 440 kts | 242° |
| 2026-04-22 10:54 | 38.16048 | -91.69306 | 25796 ft | 443 kts | 246° |
| 2026-04-22 10:55 | 38.15101 | -91.73017 | 25955 ft | 442 kts | 266° |
| 2026-04-22 10:55 | 38.14928 | -91.76867 | 26483 ft | 431 kts | 272° |
| 2026-04-22 10:55 | 38.14879 | -91.80675 | 27111 ft | 431 kts | 272° |
| 2026-04-22 10:55 | 38.14824 | -91.84486 | 27663 ft | 432 kts | 272° |
| 2026-04-22 10:56 | 38.14761 | -91.88311 | 28191 ft | 434 kts | 272° |
| 2026-04-22 10:56 | 38.14665 | -91.92152 | 28709 ft | 436 kts | 271° |
| 2026-04-22 10:56 | 38.14544 | -91.96002 | 29247 ft | 436 kts | 271° |
| 2026-04-22 10:56 | 38.14418 | -91.99860 | 29796 ft | 436 kts | 271° |
| 2026-04-22 10:57 | 38.14292 | -92.03709 | 30319 ft | 436 kts | 271° |
| 2026-04-22 10:57 | 38.14163 | -92.07558 | 30786 ft | 436 kts | 271° |
| 2026-04-22 10:57 | 38.14031 | -92.11393 | 31270 ft | 434 kts | 271° |
| 2026-04-22 10:57 | 38.13898 | -92.15222 | 31753 ft | 433 kts | 271° |
| 2026-04-22 10:58 | 38.13767 | -92.18994 | 32157 ft | 434 kts | 271° |
| 2026-04-22 10:58 | 38.13633 | -92.22834 | 32474 ft | 437 kts | 271° |
| 2026-04-22 10:58 | 38.13500 | -92.26695 | 32770 ft | 439 kts | 271° |
| 2026-04-22 10:58 | 38.13365 | -92.30587 | 33084 ft | 441 kts | 271° |
| 2026-04-22 10:59 | 38.13231 | -92.34490 | 33403 ft | 443 kts | 271° |
| 2026-04-22 10:59 | 38.13082 | -92.38404 | 33722 ft | 445 kts | 271° |
| 2026-04-22 10:59 | 38.12902 | -92.42340 | 34049 ft | 446 kts | 270° |
| 2026-04-22 11:00 | 38.12531 | -92.50317 | 34143 ft | 460 kts | 270° |
| 2026-04-22 11:00 | 38.12173 | -92.58546 | 34155 ft | 472 kts | 270° |
| 2026-04-22 11:01 | 38.11829 | -92.66941 | 34151 ft | 479 kts | 271° |
| 2026-04-22 11:01 | 38.11504 | -92.75385 | 34143 ft | 483 kts | 271° |
| 2026-04-22 11:01 | 38.11345 | -92.79672 | 33997 ft | 487 kts | 271° |
| 2026-04-22 11:02 | 38.11188 | -92.83975 | 33995 ft | 488 kts | 271° |
| 2026-04-22 11:02 | 38.10847 | -92.92596 | 33989 ft | 489 kts | 270° |
| 2026-04-22 11:03 | 38.10445 | -93.01224 | 33977 ft | 490 kts | 270° |
| 2026-04-22 11:03 | 38.10057 | -93.09865 | 33965 ft | 490 kts | 270° |
| 2026-04-22 11:04 | 38.09684 | -93.18515 | 33972 ft | 491 kts | 270° |
| 2026-04-22 11:04 | 38.09327 | -93.27181 | 33977 ft | 491 kts | 270° |
| 2026-04-22 11:05 | 38.08919 | -93.35836 | 33976 ft | 492 kts | 269° |
| 2026-04-22 11:05 | 38.08470 | -93.44494 | 33967 ft | 492 kts | 269° |
| 2026-04-22 11:06 | 38.08045 | -93.53123 | 33958 ft | 492 kts | 269° |
| 2026-04-22 11:06 | 38.07634 | -93.61789 | 33967 ft | 492 kts | 269° |
| 2026-04-22 11:07 | 38.07238 | -93.70467 | 33972 ft | 492 kts | 269° |
| 2026-04-22 11:07 | 38.06826 | -93.79139 | 33965 ft | 493 kts | 269° |
| 2026-04-22 11:08 | 38.06341 | -93.87810 | 33966 ft | 493 kts | 268° |
| 2026-04-22 11:08 | 38.05865 | -93.96487 | 33968 ft | 493 kts | 269° |
| 2026-04-22 11:09 | 38.05413 | -94.05158 | 33968 ft | 493 kts | 269° |
| 2026-04-22 11:09 | 38.04970 | -94.13842 | 33964 ft | 492 kts | 269° |
| 2026-04-22 11:10 | 38.04538 | -94.22524 | 33958 ft | 493 kts | 269° |
| 2026-04-22 11:10 | 38.04099 | -94.31141 | 33956 ft | 493 kts | 268° |
| 2026-04-22 11:11 | 38.03583 | -94.39819 | 33955 ft | 493 kts | 268° |
| 2026-04-22 11:11 | 38.03078 | -94.48491 | 33956 ft | 493 kts | 268° |
| 2026-04-22 11:12 | 38.02590 | -94.57164 | 33958 ft | 493 kts | 268° |
| 2026-04-22 11:12 | 38.02120 | -94.65831 | 33921 ft | 493 kts | 268° |
| 2026-04-22 11:12 | 38.01884 | -94.70212 | 33438 ft | 501 kts | 268° |
| 2026-04-22 11:13 | 38.01651 | -94.74564 | 32956 ft | 485 kts | 268° |
| 2026-04-22 11:13 | 38.01393 | -94.78773 | 32514 ft | 474 kts | 267° |
| 2026-04-22 11:13 | 38.01123 | -94.82921 | 32074 ft | 472 kts | 267° |
| 2026-04-22 11:13 | 38.00856 | -94.87062 | 31656 ft | 470 kts | 267° |
| 2026-04-22 11:14 | 38.00598 | -94.91180 | 31237 ft | 466 kts | 267° |
| 2026-04-22 11:14 | 38.00346 | -94.95262 | 30825 ft | 463 kts | 267° |
| 2026-04-22 11:14 | 38.00097 | -94.99319 | 30414 ft | 460 kts | 267° |
| 2026-04-22 11:14 | 37.99854 | -95.03352 | 29981 ft | 457 kts | 267° |
| 2026-04-22 11:15 | 37.99623 | -95.07308 | 29516 ft | 454 kts | 267° |
| 2026-04-22 11:15 | 37.99392 | -95.11281 | 29048 ft | 451 kts | 267° |
| 2026-04-22 11:15 | 37.99161 | -95.15230 | 28600 ft | 448 kts | 267° |
| 2026-04-22 11:15 | 37.98935 | -95.19160 | 28146 ft | 445 kts | 267° |
| 2026-04-22 11:16 | 37.98715 | -95.23058 | 27703 ft | 442 kts | 268° |
| 2026-04-22 11:16 | 37.98482 | -95.26923 | 27269 ft | 439 kts | 266° |
| 2026-04-22 11:16 | 37.98218 | -95.30764 | 26846 ft | 436 kts | 266° |
| 2026-04-22 11:16 | 37.97954 | -95.34581 | 26424 ft | 433 kts | 266° |
| 2026-04-22 11:17 | 37.97697 | -95.38375 | 26013 ft | 430 kts | 266° |
| 2026-04-22 11:17 | 37.97441 | -95.42142 | 25607 ft | 428 kts | 266° |
| 2026-04-22 11:17 | 37.97186 | -95.45886 | 25205 ft | 425 kts | 266° |
| 2026-04-22 11:17 | 37.96937 | -95.49606 | 24808 ft | 422 kts | 267° |
| 2026-04-22 11:18 | 37.96690 | -95.53299 | 24416 ft | 420 kts | 266° |
| 2026-04-22 11:18 | 37.96445 | -95.56976 | 24029 ft | 418 kts | 266° |
| 2026-04-22 11:18 | 37.96204 | -95.60630 | 23642 ft | 415 kts | 267° |
| 2026-04-22 11:18 | 37.95966 | -95.64220 | 23190 ft | 413 kts | 267° |
| 2026-04-22 11:19 | 37.95730 | -95.67836 | 22735 ft | 410 kts | 267° |
| 2026-04-22 11:19 | 37.95497 | -95.71434 | 22284 ft | 408 kts | 267° |
| 2026-04-22 11:19 | 37.95270 | -95.75010 | 21841 ft | 405 kts | 266° |
| 2026-04-22 11:19 | 37.95050 | -95.78562 | 21405 ft | 402 kts | 267° |
| 2026-04-22 11:20 | 37.94836 | -95.82087 | 20981 ft | 400 kts | 266° |
| 2026-04-22 11:20 | 37.94596 | -95.85584 | 20555 ft | 397 kts | 266° |
| 2026-04-22 11:20 | 37.94355 | -95.89061 | 20140 ft | 395 kts | 266° |
| 2026-04-22 11:20 | 37.94126 | -95.92512 | 19725 ft | 392 kts | 266° |
| 2026-04-22 11:21 | 37.93978 | -95.94795 | 19461 ft | 391 kts | 266° |
| 2026-04-22 11:21 | 37.93757 | -95.98219 | 19058 ft | 389 kts | 265° |
| 2026-04-22 11:21 | 37.93510 | -96.01621 | 18666 ft | 386 kts | 265° |
| 2026-04-22 11:21 | 37.93263 | -96.05003 | 18264 ft | 385 kts | 265° |
| 2026-04-22 11:22 | 37.93027 | -96.08376 | 17811 ft | 382 kts | 265° |
| 2026-04-22 11:22 | 37.92803 | -96.11652 | 17258 ft | 367 kts | 265° |
| 2026-04-22 11:22 | 37.92584 | -96.14862 | 16470 ft | 363 kts | 265° |
| 2026-04-22 11:22 | 37.92367 | -96.18025 | 15703 ft | 359 kts | 264° |
| 2026-04-22 11:23 | 37.92130 | -96.21152 | 14965 ft | 355 kts | 264° |
| 2026-04-22 11:23 | 37.91899 | -96.24258 | 14259 ft | 352 kts | 264° |
| 2026-04-22 11:23 | 37.91677 | -96.27334 | 13527 ft | 349 kts | 264° |
| 2026-04-22 11:23 | 37.91460 | -96.30381 | 12755 ft | 346 kts | 264° |
| 2026-04-22 11:24 | 37.91260 | -96.33329 | 12398 ft | 332 kts | 263° |
| 2026-04-22 11:24 | 37.91046 | -96.36206 | 12105 ft | 316 kts | 263° |
| 2026-04-22 11:24 | 37.90846 | -96.38924 | 11816 ft | 304 kts | 263° |
| 2026-04-22 11:24 | 37.90665 | -96.41501 | 11515 ft | 293 kts | 263° |
| 2026-04-22 11:25 | 37.90488 | -96.44067 | 11215 ft | 286 kts | 263° |
| 2026-04-22 11:25 | 37.90299 | -96.46526 | 10932 ft | 283 kts | 262° |
| 2026-04-22 11:25 | 37.90108 | -96.49040 | 10602 ft | 285 kts | 262° |
| 2026-04-22 11:25 | 37.89924 | -96.51535 | 10092 ft | 290 kts | 262° |
| 2026-04-22 11:26 | 37.89740 | -96.54081 | 9504 ft | 290 kts | 262° |
| 2026-04-22 11:26 | 37.89559 | -96.56626 | 8940 ft | 290 kts | 262° |
| 2026-04-22 11:26 | 37.89361 | -96.59157 | 8396 ft | 288 kts | 261° |
| 2026-04-22 11:26 | 37.89170 | -96.61668 | 7862 ft | 286 kts | 261° |
| 2026-04-22 11:27 | 37.88986 | -96.64168 | 7339 ft | 283 kts | 261° |
| 2026-04-22 11:27 | 37.88809 | -96.66630 | 6966 ft | 276 kts | 262° |
| 2026-04-22 11:27 | 37.88647 | -96.68995 | 6713 ft | 264 kts | 261° |
| 2026-04-22 11:27 | 37.88470 | -96.71273 | 6476 ft | 257 kts | 261° |
| 2026-04-22 11:28 | 37.88299 | -96.73520 | 6222 ft | 256 kts | 261° |
| 2026-04-22 11:28 | 37.88127 | -96.75755 | 5958 ft | 254 kts | 261° |
| 2026-04-22 11:28 | 37.87962 | -96.77968 | 5702 ft | 251 kts | 261° |
| 2026-04-22 11:28 | 37.87808 | -96.80111 | 5427 ft | 245 kts | 261° |
| 2026-04-22 11:29 | 37.87656 | -96.82245 | 5152 ft | 241 kts | 261° |
| 2026-04-22 11:29 | 37.87512 | -96.84332 | 4922 ft | 235 kts | 261° |
| 2026-04-22 11:29 | 37.87367 | -96.86347 | 4938 ft | 225 kts | 259° |
| 2026-04-22 11:29 | 37.87218 | -96.88320 | 4985 ft | 230 kts | 259° |
| 2026-04-22 11:30 | 37.87056 | -96.90389 | 4965 ft | 240 kts | 260° |
| 2026-04-22 11:30 | 37.86878 | -96.92490 | 4908 ft | 238 kts | 259° |
| 2026-04-22 11:30 | 37.86707 | -96.94552 | 4911 ft | 234 kts | 259° |
| 2026-04-22 11:30 | 37.86538 | -96.96612 | 4951 ft | 237 kts | 260° |
| 2026-04-22 11:31 | 37.86367 | -96.98702 | 4931 ft | 239 kts | 259° |
| 2026-04-22 11:31 | 37.86197 | -97.00785 | 4904 ft | 236 kts | 260° |
| 2026-04-22 11:31 | 37.86036 | -97.02837 | 4927 ft | 234 kts | 260° |
| 2026-04-22 11:31 | 37.85870 | -97.04888 | 4933 ft | 239 kts | 259° |
| 2026-04-22 11:32 | 37.85695 | -97.07010 | 4907 ft | 239 kts | 260° |
| 2026-04-22 11:32 | 37.85528 | -97.09055 | 4911 ft | 234 kts | 259° |
| 2026-04-22 11:32 | 37.85361 | -97.11106 | 4930 ft | 235 kts | 260° |
| 2026-04-22 11:32 | 37.85186 | -97.13181 | 4931 ft | 239 kts | 260° |
| 2026-04-22 11:33 | 37.85015 | -97.15265 | 4918 ft | 238 kts | 260° |
| 2026-04-22 11:33 | 37.84849 | -97.17339 | 4924 ft | 236 kts | 261° |
| 2026-04-22 11:33 | 37.84702 | -97.19417 | 4933 ft | 238 kts | 261° |
| 2026-04-22 11:33 | 37.84550 | -97.21511 | 4933 ft | 240 kts | 260° |
| 2026-04-22 11:34 | 37.84372 | -97.23596 | 4925 ft | 237 kts | 260° |
| 2026-04-22 11:34 | 37.84196 | -97.25660 | 4917 ft | 236 kts | 259° |
| 2026-04-22 11:34 | 37.84026 | -97.27743 | 4937 ft | 239 kts | 260° |
| 2026-04-22 11:34 | 37.83855 | -97.29843 | 4931 ft | 240 kts | 260° |
| 2026-04-22 11:35 | 37.83666 | -97.31935 | 4905 ft | 237 kts | 255° |
| 2026-04-22 11:35 | 37.82943 | -97.33783 | 4419 ft | 241 kts | 224° |
| 2026-04-22 11:35 | 37.81504 | -97.34980 | 3577 ft | 252 kts | 207° |
| 2026-04-22 11:35 | 37.79979 | -97.35951 | 3328 ft | 236 kts | 208° |
| 2026-04-22 11:36 | 37.78595 | -97.36864 | 3276 ft | 211 kts | 208° |
| 2026-04-22 11:36 | 37.77345 | -97.37664 | 3248 ft | 193 kts | 206° |
| 2026-04-22 11:36 | 37.76167 | -97.38371 | 3206 ft | 186 kts | 206° |
| 2026-04-22 11:36 | 37.74946 | -97.39077 | 3213 ft | 194 kts | 205° |
| 2026-04-22 11:37 | 37.73713 | -97.39749 | 3099 ft | 197 kts | 204° |
| 2026-04-22 11:37 | 37.72442 | -97.40406 | 2844 ft | 195 kts | 202° |
| 2026-04-22 11:37 | 37.71179 | -97.41035 | 2609 ft | 195 kts | 202° |
| 2026-04-22 11:37 | 37.69876 | -97.41661 | 2256 ft | 197 kts | 199° |
| 2026-04-22 11:38 | 37.68558 | -97.42179 | 1849 ft | 201 kts | 199° |
| 2026-04-22 11:38 | 37.67303 | -97.42807 | 1573 ft | 187 kts | 202° |
| 2026-04-22 11:38 | 37.65082 | -97.43860 | 1332 ft | 150 kts | 199° |
| 2026-04-22 11:39 | 37.64407 | -97.44172 | 1333 ft | 53 kts | 200° |
| 2026-04-22 11:39 | 37.64124 | -97.44304 | 1329 ft | 37 kts | 200° |
| 2026-04-22 11:39 | 37.64002 | -97.44244 | 1327 ft | 18 kts | 75° |
| 2026-04-22 11:39 | 37.64115 | -97.44172 | 1331 ft | 22 kts | 20° |
| 2026-04-22 11:40 | 37.64296 | -97.44089 | 1333 ft | 33 kts | 20° |
| 2026-04-22 11:40 | 37.64548 | -97.43977 | 1332 ft | 44 kts | 19° |
| 2026-04-22 11:40 | 37.64837 | -97.43849 | 1331 ft | 43 kts | 20° |
| 2026-04-22 11:40 | 37.65091 | -97.43731 | 1333 ft | 31 kts | 20° |
| 2026-04-22 11:41 | 37.65220 | -97.43621 | 1335 ft | 18 kts | 91° |
| 2026-04-22 11:41 | 37.65265 | -97.43524 | 1338 ft | 13 kts | 86° |
| 2026-04-22 11:41 | 37.65246 | -97.43414 | 1339 ft | 13 kts | 106° |
| 2026-04-22 11:41 | 37.65248 | -97.43307 | 1335 ft | 13 kts | 60° |
| 2026-04-22 11:42 | 37.65304 | -97.43225 | 1335 ft | 12 kts | 53° |
| 2026-04-22 11:42 | 37.65326 | -97.43176 | 1339 ft | 0 kts | 61° |